Time;durP1;ratioP1;P1;durP2;ratioP2;P2;SDS_P1;SDS_P2;PMS_P1;PMS_P2;Temp;Humidity;BMP_temperature;BMP_pressure;BME280_temperature;BME280_humidity;BME280_pressure;Samples;Min_cycle;Max_cycle;Signal;HPM_P1;HPM_P2
2024/03/29 00:01:29;;;;;;;6.97;1.50;;;;;;;11.76;71.69;98484.56;5049250;28;20483;-63
2024/03/29 00:03:55;;;;;;;8.00;1.70;;;;;;;11.47;72.26;98481.78;5066857;28;20044;-61
2024/03/29 00:06:21;;;;;;;6.65;1.60;;;;;;;11.61;72.36;98488.25;5051339;28;20103;-63
2024/03/29 00:08:48;;;;;;;4.65;1.33;;;;;;;11.74;72.19;98494.38;5050799;28;20663;-64
2024/03/29 00:11:15;;;;;;;6.38;1.40;;;;;;;11.62;73.32;98491.81;5063298;28;20044;-64
2024/03/29 00:13:41;;;;;;;7.82;1.80;;;;;;;11.70;73.27;98493.56;5049862;28;20057;-62
2024/03/29 00:16:07;;;;;;;9.40;2.40;;;;;;;11.77;73.29;98496.41;5047304;28;20829;-62
2024/03/29 00:18:33;;;;;;;6.25;1.27;;;;;;;11.56;74.15;98490.56;5063294;28;20493;-63
2024/03/29 00:21:00;;;;;;;6.18;1.55;;;;;;;11.69;74.76;98492.75;5046004;28;20045;-63
2024/03/29 00:23:28;;;;;;;9.98;1.80;;;;;;;11.70;74.70;98480.53;5046659;28;20558;-62
2024/03/29 00:25:58;;;;;;;6.15;1.65;;;;;;;11.71;74.91;98482.16;5046420;28;20837;-62
2024/03/29 00:28:24;;;;;;;6.03;1.40;;;;;;;11.50;75.67;98467.25;5046588;28;20060;-65
2024/03/29 00:30:50;;;;;;;6.60;1.27;;;;;;;11.68;75.60;98463.56;5051019;28;20060;-63
2024/03/29 00:33:16;;;;;;;7.78;1.70;;;;;;;11.59;76.27;98462.25;5063488;28;20575;-63
2024/03/29 00:35:43;;;;;;;4.57;1.25;;;;;;;11.28;77.72;98458.69;5061599;28;20064;-63
2024/03/29 00:38:09;;;;;;;6.03;1.60;;;;;;;11.33;77.50;98455.59;5055767;28;20057;-63
2024/03/29 00:40:36;;;;;;;7.22;1.52;;;;;;;11.70;76.37;98441.16;5066335;28;20063;-62
2024/03/29 00:43:02;;;;;;;8.80;1.80;;;;;;;11.47;76.93;98434.91;5066139;28;20609;-62
2024/03/29 00:45:29;;;;;;;6.10;1.90;;;;;;;11.45;77.76;98427.03;5065497;28;20060;-62
2024/03/29 00:47:55;;;;;;;6.28;1.10;;;;;;;11.78;76.09;98421.56;5066036;28;20056;-64
2024/03/29 00:50:21;;;;;;;10.23;1.75;;;;;;;11.58;76.85;98427.56;5065821;28;20067;-63
2024/03/29 00:52:48;;;;;;;7.18;1.30;;;;;;;11.64;76.74;98437.09;5065970;28;20044;-63
2024/03/29 00:55:14;;;;;;;3.10;0.90;;;;;;;11.33;77.21;98439.06;5065933;28;20053;-63
2024/03/29 00:57:41;;;;;;;5.50;1.20;;;;;;;11.27;77.38;98440.56;5048983;28;20723;-62
2024/03/29 01:00:09;;;;;;;8.30;1.52;;;;;;;11.21;77.86;98442.06;5064960;28;20052;-64
2024/03/29 01:02:36;;;;;;;10.35;1.40;;;;;;;11.27;77.30;98450.78;5065372;28;20494;-65
2024/03/29 01:05:02;;;;;;;4.78;1.30;;;;;;;11.26;77.04;98438.97;5048748;28;20086;-64
2024/03/29 01:07:29;;;;;;;6.50;1.20;;;;;;;11.25;77.90;98448.41;5048507;28;20048;-61
2024/03/29 01:09:55;;;;;;;7.53;1.40;;;;;;;11.15;78.04;98445.50;5052002;28;20052;-63
2024/03/29 01:12:21;;;;;;;4.20;1.33;;;;;;;11.23;78.45;98427.91;5048995;28;20051;-61
2024/03/29 01:14:47;;;;;;;6.40;1.50;;;;;;;11.34;77.74;98450.91;5065775;28;20057;-62
2024/03/29 01:17:15;;;;;;;7.20;1.88;;;;;;;11.17;78.85;98445.94;5065594;28;20815;-61
2024/03/29 01:19:41;;;;;;;5.40;1.27;;;;;;;11.39;78.38;98425.75;5066034;28;20059;-61
2024/03/29 01:22:08;;;;;;;7.72;1.45;;;;;;;11.41;77.62;98425.38;5061843;28;20482;-62
2024/03/29 01:24:34;;;;;;;6.38;1.30;;;;;;;11.25;78.42;98439.34;5046359;28;20048;-62
2024/03/29 01:27:01;;;;;;;7.35;1.40;;;;;;;11.25;78.25;98442.09;5063675;28;20060;-62
2024/03/29 01:29:27;;;;;;;7.03;1.77;;;;;;;11.28;78.71;98455.94;5065607;28;20055;-61
2024/03/29 01:31:53;;;;;;;4.78;1.30;;;;;;;11.41;78.05;98442.72;5065893;28;20072;-62
2024/03/29 01:34:20;;;;;;;6.63;1.60;;;;;;;11.32;78.43;98440.25;5047546;28;20068;-63
2024/03/29 01:36:46;;;;;;;5.93;1.33;;;;;;;11.53;77.68;98444.44;5050856;28;20456;-63
2024/03/29 01:39:15;;;;;;;7.43;1.55;;;;;;;11.33;78.34;98441.03;5048626;28;20056;-61
2024/03/29 01:41:41;;;;;;;10.38;1.60;;;;;;;11.08;79.00;98448.16;5047303;28;20057;-62
2024/03/29 01:44:08;;;;;;;6.75;1.38;;;;;;;10.99;80.67;98462.19;5065932;28;20053;-62
2024/03/29 01:46:35;;;;;;;7.25;1.70;;;;;;;11.02;80.33;98455.94;5066446;28;20056;-63
2024/03/29 01:49:02;;;;;;;5.90;1.17;;;;;;;11.04;81.06;98450.06;5053576;28;20061;-62
2024/03/29 01:51:28;;;;;;;6.53;1.30;;;;;;;10.99;80.74;98404.34;5046256;28;20057;-61
2024/03/29 01:53:55;;;;;;;7.93;1.58;;;;;;;11.14;80.71;98441.19;5045135;28;20041;-62
2024/03/29 01:56:22;;;;;;;7.35;1.33;;;;;;;10.94;81.27;98465.28;5029024;28;20052;-61
2024/03/29 01:58:53;;;;;;;3.85;1.10;;;;;;;10.57;82.80;98466.22;5050271;28;20083;-61
2024/03/29 02:01:20;;;;;;;8.13;1.65;;;;;;;10.42;84.10;98447.88;5054384;28;20057;-60
2024/03/29 02:03:47;;;;;;;8.25;1.55;;;;;;;10.49;84.38;98424.03;5050357;28;20075;-61
2024/03/29 02:06:14;;;;;;;7.57;1.60;;;;;;;10.69;83.34;98416.47;5049334;28;20049;-61
2024/03/29 02:08:40;;;;;;;7.28;1.80;;;;;;;10.47;83.53;98450.31;5059204;28;20686;-61
2024/03/29 02:11:06;;;;;;;8.68;1.83;;;;;;;10.73;82.76;98439.34;5055360;28;20057;-62
2024/03/29 02:13:33;;;;;;;7.13;1.50;;;;;;;10.94;82.25;98458.97;5048847;28;20070;-61
2024/03/29 02:15:59;;;;;;;8.75;1.50;;;;;;;10.97;82.75;98463.72;5053469;28;20056;-61
2024/03/29 02:18:26;;;;;;;5.20;1.50;;;;;;;11.13;81.88;98445.09;5049402;28;20067;-62
2024/03/29 02:20:52;;;;;;;5.57;1.90;;;;;;;11.32;81.56;98465.06;5051969;28;20087;-62
2024/03/29 02:23:29;;;;;;;7.15;1.50;;;;;;;11.07;82.01;98452.09;5069059;28;20078;-62
2024/03/29 02:25:56;;;;;;;5.93;1.40;;;;;;;11.19;81.08;98443.59;5053569;28;20044;-62
2024/03/29 02:28:22;;;;;;;6.97;1.90;;;;;;;11.18;81.18;98453.81;5060384;28;20053;-62
2024/03/29 02:30:52;;;;;;;8.38;1.90;;;;;;;11.15;81.72;98456.53;5049837;28;20049;-61
2024/03/29 02:33:20;;;;;;;5.82;1.40;;;;;;;11.12;81.77;98444.28;5052917;28;20041;-64
2024/03/29 02:35:47;;;;;;;7.72;1.60;;;;;;;11.30;80.87;98428.78;5048695;28;20053;-62
2024/03/29 02:38:13;;;;;;;7.88;1.60;;;;;;;11.06;81.05;98443.03;5059305;28;20542;-62
2024/03/29 02:40:40;;;;;;;4.55;1.35;;;;;;;11.13;81.22;98442.31;5068822;28;20119;-61
2024/03/29 02:43:06;;;;;;;7.20;1.75;;;;;;;11.19;81.06;98446.38;5068631;28;20048;-61
2024/03/29 02:45:32;;;;;;;5.55;1.45;;;;;;;11.06;81.84;98450.50;5068631;28;20519;-62
2024/03/29 02:47:59;;;;;;;4.90;1.63;;;;;;;11.28;81.38;98455.13;5068142;28;20060;-62
2024/03/29 02:50:25;;;;;;;5.47;1.50;;;;;;;11.37;80.97;98469.44;5049342;28;20079;-61
2024/03/29 02:52:51;;;;;;;5.93;1.17;;;;;;;11.35;80.79;98469.81;5048347;28;20737;-62
2024/03/29 02:55:18;;;;;;;4.72;1.58;;;;;;;11.48;80.85;98466.81;5048579;28;20057;-61
2024/03/29 02:57:44;;;;;;;8.93;1.80;;;;;;;11.60;80.54;98470.13;5045411;28;20052;-61
2024/03/29 03:00:11;;;;;;;7.22;1.55;;;;;;;11.34;81.54;98465.47;5067685;28;20048;-61
2024/03/29 03:02:40;;;;;;;7.03;1.40;;;;;;;11.44;81.71;98468.75;5067025;28;20056;-61
2024/03/29 03:05:07;;;;;;;9.13;1.30;;;;;;;11.47;81.48;98473.50;5067171;28;20048;-61
2024/03/29 03:13:04;;;;;;;9.10;1.70;;;;;;;11.51;81.73;98460.56;5068076;28;20052;-61
2024/03/29 03:15:31;;;;;;;4.32;1.40;;;;;;;11.45;82.07;98462.06;5070109;28;20499;-61
2024/03/29 03:17:57;;;;;;;5.82;1.48;;;;;;;11.62;81.65;98469.75;5049402;28;20389;-61
2024/03/29 03:20:27;;;;;;;3.72;1.30;;;;;;;11.55;82.04;98462.19;5048027;28;20061;-62
2024/03/29 03:22:55;;;;;;;;;;;;;;;11.50;82.39;98468.03;5048024;28;20531;-62
2024/03/29 03:25:22;;;;;;;6.00;1.35;;;;;;;11.60;82.32;98474.84;5054206;28;19931;-62
2024/03/29 03:27:48;;;;;;;7.05;1.75;;;;;;;11.50;83.04;98478.28;5051472;28;20052;-61
2024/03/29 03:30:17;;;;;;;5.60;1.27;;;;;;;11.64;82.68;98475.69;5064774;28;20057;-61
2024/03/29 03:32:44;;;;;;;4.47;1.20;;;;;;;11.70;82.91;98480.53;5048104;28;20064;-62
2024/03/29 03:35:10;;;;;;;6.75;1.40;;;;;;;11.58;83.38;98489.00;5047508;28;20061;-63
2024/03/29 03:37:36;;;;;;;5.40;1.30;;;;;;;11.61;83.50;98496.53;5065453;28;20050;-62
2024/03/29 03:40:04;;;;;;;4.85;1.42;;;;;;;11.62;83.55;98489.88;5067701;28;20068;-62
2024/03/29 03:42:30;;;;;;;6.93;1.45;;;;;;;11.65;83.92;98493.84;5068025;28;20732;-61
2024/03/29 03:44:56;;;;;;;6.22;1.25;;;;;;;11.62;84.58;98489.06;5067606;28;20052;-61
2024/03/29 03:47:23;;;;;;;4.25;1.23;;;;;;;11.68;84.40;98491.13;5060052;28;20049;-62
2024/03/29 03:49:49;;;;;;;4.20;1.50;;;;;;;11.69;84.54;98480.91;5047682;28;20057;-62
2024/03/29 03:52:15;;;;;;;5.10;1.23;;;;;;;11.64;85.14;98489.50;5045971;28;20045;-61
2024/03/29 03:54:41;;;;;;;2.97;1.10;;;;;;;11.71;85.66;98482.16;5049091;28;20056;-61
2024/03/29 03:57:08;;;;;;;5.50;1.17;;;;;;;11.74;85.46;98499.88;5043392;28;20463;-62
2024/03/29 03:59:37;;;;;;;4.77;1.13;;;;;;;11.58;86.61;98510.28;5067160;28;20044;-62
2024/03/29 04:02:03;;;;;;;4.30;1.13;;;;;;;11.68;86.70;98513.19;5048741;28;20068;-62
2024/03/29 04:04:30;;;;;;;4.32;1.20;;;;;;;11.57;86.81;98515.00;5047216;28;20045;-62
2024/03/29 04:06:56;;;;;;;5.25;1.10;;;;;;;11.52;87.86;98515.34;5047233;28;20049;-62
2024/03/29 04:09:22;;;;;;;7.47;1.65;;;;;;;11.54;88.02;98520.47;5047024;28;20053;-61
2024/03/29 04:11:49;;;;;;;10.50;2.58;;;;;;;11.65;88.15;98522.22;5065397;28;20041;-62
2024/03/29 04:14:15;;;;;;;4.90;1.40;;;;;;;11.61;87.77;98539.88;5066963;28;20050;-61
2024/03/29 04:16:41;;;;;;;4.32;1.40;;;;;;;11.51;88.69;98532.22;5065046;28;20068;-61
2024/03/29 04:19:07;;;;;;;3.40;1.20;;;;;;;11.63;88.83;98538.31;5064668;28;20423;-62
2024/03/29 04:21:34;;;;;;;4.57;1.30;;;;;;;11.69;88.52;98547.91;5067015;28;20056;-63
2024/03/29 04:24:00;;;;;;;7.03;1.17;;;;;;;11.69;88.22;98553.41;5043025;28;20041;-61
2024/03/29 04:26:26;;;;;;;8.02;1.50;;;;;;;11.77;88.58;98548.81;5047983;28;20056;-60
2024/03/29 04:28:52;;;;;;;3.13;1.05;;;;;;;11.96;87.08;98552.19;5067072;28;20052;-61
2024/03/29 04:31:19;;;;;;;4.97;1.30;;;;;;;11.83;87.18;98553.59;5067696;28;20441;-61
2024/03/29 04:33:45;;;;;;;4.00;0.98;;;;;;;11.90;86.95;98558.41;5067947;28;20060;-62
2024/03/29 04:36:11;;;;;;;5.90;1.17;;;;;;;11.91;87.91;98568.28;5050386;28;20060;-61
2024/03/29 04:38:38;;;;;;;5.45;1.25;;;;;;;11.79;87.99;98563.78;5034339;28;20060;-61
2024/03/29 04:41:04;;;;;;;5.72;1.02;;;;;;;11.86;87.81;98569.41;5062241;28;20059;-61
2024/03/29 04:43:30;;;;;;;6.93;1.45;;;;;;;11.80;88.74;98581.16;5045781;28;20053;-62
2024/03/29 04:46:12;;;;;;;6.07;1.50;;;;;;;11.75;88.36;98582.25;5062912;28;20063;-61
2024/03/29 04:48:41;;;;;;;7.63;1.27;;;;;;;11.80;87.90;98590.19;5049579;28;20058;-61
2024/03/29 04:51:08;;;;;;;6.88;1.58;;;;;;;11.90;88.05;98586.81;5054919;28;20508;-61
2024/03/29 04:53:38;;;;;;;6.15;1.40;;;;;;;11.70;88.97;98593.59;5045980;28;20037;-63
2024/03/29 04:56:05;;;;;;;6.63;1.60;;;;;;;11.71;89.13;98594.41;5049202;28;20052;-61
2024/03/29 04:58:32;;;;;;;6.28;1.35;;;;;;;11.70;89.25;98584.56;5065257;28;20094;-61
2024/03/29 05:00:58;;;;;;;4.60;1.20;;;;;;;11.75;88.98;98579.50;5045080;28;20063;-63
2024/03/29 05:03:24;;;;;;;5.93;1.17;;;;;;;11.80;88.93;98584.69;5040023;28;20059;-61
2024/03/29 05:05:51;;;;;;;5.63;1.50;;;;;;;11.64;89.45;98588.75;5054175;28;20049;-61
2024/03/29 05:08:22;;;;;;;4.57;1.17;;;;;;;11.61;89.80;98593.03;5054885;28;20056;-61
2024/03/29 05:10:52;;;;;;;4.75;1.40;;;;;;;11.78;89.02;98594.50;5066100;28;20060;-61
2024/03/29 05:13:19;;;;;;;9.85;1.30;;;;;;;11.82;88.02;98590.63;5066113;28;20044;-61
2024/03/29 05:15:47;;;;;;;7.65;1.40;;;;;;;11.75;88.79;98593.28;5032685;28;20522;-62
2024/03/29 05:18:13;;;;;;;7.90;1.50;;;;;;;11.76;88.80;98602.34;5043607;28;20064;-64
2024/03/29 05:20:41;;;;;;;18.00;1.85;;;;;;;11.70;88.77;98610.16;5029058;28;20064;-62
2024/03/29 05:23:07;;;;;;;6.03;1.35;;;;;;;11.71;89.07;98608.19;5046201;28;20484;-65
2024/03/29 05:25:34;;;;;;;7.38;1.10;;;;;;;11.52;89.30;98625.63;5046201;28;20052;-62
2024/03/29 05:28:01;;;;;;;10.75;1.58;;;;;;;11.63;89.29;98637.59;5060106;28;20607;-61
2024/03/29 05:30:30;;;;;;;9.35;2.20;;;;;;;11.73;88.56;98639.75;5050008;28;20053;-61
2024/03/29 05:32:57;;;;;;;6.40;1.70;;;;;;;11.80;88.47;98636.31;5062598;28;20506;-61
2024/03/29 05:35:23;;;;;;;9.35;1.73;;;;;;;12.04;87.18;98638.63;5065373;28;20053;-62
2024/03/29 05:37:53;;;;;;;4.03;1.35;;;;;;;11.58;88.52;98659.97;5064915;28;20052;-61
2024/03/29 05:40:25;;;;;;;6.47;1.75;;;;;;;11.67;88.68;98665.25;5065666;28;20056;-63
2024/03/29 05:42:52;;;;;;;4.22;1.40;;;;;;;11.45;89.38;98658.59;5065826;28;20063;-61
2024/03/29 05:45:25;;;;;;;6.05;1.25;;;;;;;11.51;90.01;98667.31;5047246;28;20048;-62
2024/03/29 05:47:54;;;;;;;4.03;1.35;;;;;;;11.74;89.21;98666.16;5045842;28;20056;-62
2024/03/29 05:50:21;;;;;;;7.63;1.77;;;;;;;12.04;87.58;98649.66;5052570;28;20060;-62
2024/03/29 05:52:47;;;;;;;4.28;1.10;;;;;;;11.76;87.59;98650.03;5062813;28;20052;-62
2024/03/29 05:55:14;;;;;;;6.47;1.55;;;;;;;11.60;88.40;98656.84;5052773;28;20057;-61
2024/03/29 05:57:44;;;;;;;5.57;1.30;;;;;;;11.84;88.19;98642.66;5063678;28;20064;-62
2024/03/29 06:00:13;;;;;;;6.85;1.70;;;;;;;11.86;87.07;98635.59;5033702;28;20519;-62
2024/03/29 06:02:40;;;;;;;8.55;1.63;;;;;;;11.88;86.46;98636.03;5069636;28;20067;-61
2024/03/29 06:05:07;;;;;;;4.93;1.52;;;;;;;11.85;86.55;98642.31;5069323;28;20036;-61
2024/03/29 06:07:33;;;;;;;8.05;1.63;;;;;;;11.68;86.45;98634.53;5032614;28;20067;-62
2024/03/29 06:10:04;;;;;;;7.05;1.48;;;;;;;11.72;87.22;98637.34;5047935;28;20055;-63
2024/03/29 06:12:34;;;;;;;7.15;1.60;;;;;;;11.67;87.01;98646.75;5065373;28;20131;-63
2024/03/29 06:17:46;;;;;;;4.78;1.20;;;;;;;11.73;86.29;98647.25;5051566;28;19931;-62
2024/03/29 06:20:12;;;;;;;6.85;1.50;;;;;;;11.61;86.47;98639.13;5048791;28;20056;-62
2024/03/29 06:22:39;;;;;;;7.68;1.15;;;;;;;11.69;86.09;98635.34;5048949;28;20064;-62
2024/03/29 06:25:09;;;;;;;3.72;1.20;;;;;;;11.97;84.77;98646.81;5061838;28;20041;-60
2024/03/29 06:27:37;;;;;;;5.75;1.10;;;;;;;11.79;84.87;98648.50;5036626;28;20055;-61
2024/03/29 06:30:04;;;;;;;5.72;1.30;;;;;;;11.91;84.74;98651.03;5068385;28;20051;-60
2024/03/29 06:32:31;;;;;;;6.70;1.30;;;;;;;11.74;84.75;98649.63;5067846;28;20087;-62
2024/03/29 06:34:58;;;;;;;3.83;1.30;;;;;;;11.87;84.50;98656.50;5068715;28;20059;-61
2024/03/29 06:37:26;;;;;;;4.07;1.10;;;;;;;11.79;84.99;98660.34;5062217;28;20053;-61
2024/03/29 06:39:53;;;;;;;5.38;1.20;;;;;;;11.83;85.03;98663.94;5048514;28;20064;-61
2024/03/29 06:42:19;;;;;;;5.22;1.10;;;;;;;11.72;85.24;98665.75;5054964;28;20048;-60
2024/03/29 06:44:46;;;;;;;4.75;1.33;;;;;;;11.68;85.84;98658.59;5066091;28;20053;-61
2024/03/29 06:47:12;;;;;;;5.03;1.45;;;;;;;11.87;85.41;98662.00;5050302;28;20056;-60
2024/03/29 06:49:38;;;;;;;5.72;1.50;;;;;;;11.94;84.81;98669.63;5061536;28;20044;-62
2024/03/29 06:52:05;;;;;;;6.10;1.55;;;;;;;11.90;84.89;98682.56;5067995;28;20583;-61
2024/03/29 06:54:33;;;;;;;6.53;1.85;;;;;;;11.87;85.14;98683.31;5067276;28;20052;-60
2024/03/29 06:57:01;;;;;;;7.40;1.40;;;;;;;12.00;84.75;98684.69;5067889;28;20058;-61
2024/03/29 06:59:27;;;;;;;5.25;1.58;;;;;;;11.99;85.10;98678.38;5062960;28;20040;-61
2024/03/29 07:01:54;;;;;;;5.15;1.25;;;;;;;11.85;85.83;98699.44;5058557;28;20053;-61
2024/03/29 07:04:22;;;;;;;5.88;1.33;;;;;;;12.01;85.42;98683.53;5045418;28;20486;-62
2024/03/29 07:06:51;;;;;;;7.78;1.50;;;;;;;12.08;85.12;98678.09;5066868;28;20044;-61
2024/03/29 07:09:21;;;;;;;6.03;1.23;;;;;;;12.24;85.01;98674.00;5067098;28;20535;-62
2024/03/29 07:11:49;;;;;;;4.25;1.30;;;;;;;12.17;84.97;98676.66;5049503;28;20056;-62
2024/03/29 07:14:16;;;;;;;4.40;1.33;;;;;;;12.16;84.99;98671.50;5046752;28;20057;-63
2024/03/29 07:16:43;;;;;;;8.48;1.35;;;;;;;12.16;86.01;98671.50;5060999;28;20052;-62
2024/03/29 07:19:12;;;;;;;9.00;1.38;;;;;;;12.20;86.10;98658.56;5051386;28;20053;-64
2024/03/29 07:21:39;;;;;;;8.00;1.60;;;;;;;12.40;85.54;98657.22;5047536;28;20053;-60
2024/03/29 07:24:06;;;;;;;5.25;1.50;;;;;;;12.42;85.19;98652.13;5047886;28;20064;-62
2024/03/29 07:26:33;;;;;;;5.63;1.40;;;;;;;12.38;85.75;98659.56;5054174;28;20071;-61
2024/03/29 07:28:59;;;;;;;8.90;1.75;;;;;;;12.37;86.60;98661.56;5051245;28;20494;-61
2024/03/29 07:31:25;;;;;;;8.95;2.17;;;;;;;12.34;87.21;98665.03;5061196;28;20049;-62
2024/03/29 07:33:52;;;;;;;10.15;2.17;;;;;;;12.52;86.58;98664.50;5060461;28;20661;-66
2024/03/29 07:36:18;;;;;;;7.93;1.98;;;;;;;12.48;87.15;98686.53;5031049;28;20056;-62
2024/03/29 07:38:44;;;;;;;8.10;1.98;;;;;;;12.49;87.45;98693.66;5052632;28;20068;-61
2024/03/29 07:41:11;;;;;;;5.72;1.65;;;;;;;12.75;86.67;98690.00;5049803;28;20071;-62
2024/03/29 07:43:41;;;;;;;5.90;1.77;;;;;;;12.77;86.98;98687.66;5047814;28;20058;-61
2024/03/29 07:46:08;;;;;;;;;;;;;;;12.65;87.02;98697.00;5062468;28;20049;-62
2024/03/29 07:48:36;;;;;;;11.27;1.60;;;;;;;12.68;87.54;98703.72;5067708;28;19924;-62
2024/03/29 07:51:02;;;;;;;11.10;1.60;;;;;;;12.78;87.65;98697.56;5056079;28;20083;-62
2024/03/29 07:53:28;;;;;;;7.45;1.50;;;;;;;12.99;86.40;98690.28;5048960;28;20412;-60
2024/03/29 07:55:55;;;;;;;4.60;1.35;;;;;;;12.78;85.99;98689.28;5063517;28;20578;-60
2024/03/29 07:58:21;;;;;;;7.15;1.52;;;;;;;13.01;85.85;98698.19;5030451;28;20514;-62
2024/03/29 08:00:48;;;;;;;5.00;1.20;;;;;;;13.07;84.59;98694.78;5037167;28;20075;-60
2024/03/29 08:03:14;;;;;;;5.05;1.20;;;;;;;13.15;84.99;98688.13;5058229;28;20535;-59
2024/03/29 08:05:40;;;;;;;7.57;1.60;;;;;;;13.12;85.24;98697.19;5013787;28;20041;-59
2024/03/29 08:08:07;;;;;;;8.32;1.45;;;;;;;13.06;84.93;98695.13;5056600;28;20048;-60
2024/03/29 08:10:33;;;;;;;6.88;1.75;;;;;;;13.15;84.23;98693.66;5047431;28;20048;-61
2024/03/29 08:13:00;;;;;;;10.40;1.50;;;;;;;13.24;85.09;98691.41;5050847;28;20052;-61
2024/03/29 08:15:27;;;;;;;5.63;1.45;;;;;;;13.46;84.33;98675.78;5081236;28;20427;-61
2024/03/29 08:17:53;;;;;;;8.75;1.83;;;;;;;13.95;85.90;98687.25;5047255;28;20055;-61
2024/03/29 08:20:20;;;;;;;8.68;1.92;;;;;;;14.13;81.29;98690.13;5030106;28;20052;-61
2024/03/29 08:22:46;;;;;;;9.15;1.40;;;;;;;14.26;79.00;98692.22;5065519;28;20057;-59
2024/03/29 08:25:12;;;;;;;4.70;1.25;;;;;;;13.86;78.04;98697.06;5048814;28;20594;-59
2024/03/29 08:27:39;;;;;;;6.22;1.23;;;;;;;13.82;78.50;98707.31;5056535;28;20498;-61
2024/03/29 08:30:06;;;;;;;8.25;1.10;;;;;;;13.77;78.26;98732.56;5053064;28;20056;-61
2024/03/29 08:32:32;;;;;;;9.43;1.75;;;;;;;13.92;78.29;98737.84;5064567;28;20051;-60
2024/03/29 08:34:59;;;;;;;7.90;1.60;;;;;;;14.18;77.32;98734.06;5057359;28;20056;-63
2024/03/29 08:37:25;;;;;;;8.00;1.58;;;;;;;14.09;76.78;98739.13;5066114;28;20055;-61
2024/03/29 08:39:52;;;;;;;12.00;2.22;;;;;;;13.98;76.34;98739.06;5065044;28;20075;-61
2024/03/29 08:42:18;;;;;;;6.85;1.60;;;;;;;14.23;76.26;98733.72;5049740;28;20064;-62
2024/03/29 08:44:44;;;;;;;7.35;1.58;;;;;;;13.99;76.35;98731.56;5062412;28;20550;-62
2024/03/29 08:47:11;;;;;;;19.00;2.50;;;;;;;13.99;76.02;98742.63;5049691;28;20060;-61
2024/03/29 08:49:37;;;;;;;7.30;1.70;;;;;;;14.04;76.18;98728.44;5051792;28;20047;-61
2024/03/29 08:52:05;;;;;;;6.70;1.10;;;;;;;14.12;75.53;98725.31;5052937;28;20044;-61
2024/03/29 08:54:32;;;;;;;10.00;1.60;;;;;;;14.23;74.88;98742.00;5032398;28;20041;-61
2024/03/29 08:56:59;;;;;;;11.55;1.60;;;;;;;14.16;74.57;98745.53;5050140;28;20048;-61
2024/03/29 08:59:25;;;;;;;9.80;1.63;;;;;;;14.10;74.85;98747.09;5048756;28;20056;-62
2024/03/29 09:01:52;;;;;;;6.00;1.30;;;;;;;14.32;74.42;98757.16;5049860;28;20664;-64
2024/03/29 09:04:20;;;;;;;7.22;1.23;;;;;;;14.19;74.47;98752.28;5050557;28;20115;-61
2024/03/29 09:06:46;;;;;;;3.67;1.15;;;;;;;14.53;73.37;98754.53;5051721;28;20041;-62
2024/03/29 09:09:13;;;;;;;8.52;1.88;;;;;;;14.62;72.84;98771.59;5021498;28;20057;-61
2024/03/29 09:11:39;;;;;;;9.07;1.30;;;;;;;14.72;73.37;98780.34;5052185;28;20048;-61
2024/03/29 09:14:09;;;;;;;8.70;1.40;;;;;;;14.88;73.29;98778.06;5048764;28;20658;-61
2024/03/29 09:16:35;;;;;;;9.55;1.60;;;;;;;14.63;72.69;98772.38;5051931;28;20041;-60
2024/03/29 09:19:02;;;;;;;4.50;1.05;;;;;;;14.50;73.83;98780.25;5035811;28;20053;-61
2024/03/29 09:21:28;;;;;;;8.88;1.38;;;;;;;14.71;72.58;98809.25;5037978;28;20055;-62
2024/03/29 09:23:55;;;;;;;13.45;5.00;;;;;;;14.73;72.37;98807.69;5064694;28;20055;-61
2024/03/29 09:26:21;;;;;;;10.73;2.15;;;;;;;14.57;73.22;98809.97;5050006;28;20049;-61
2024/03/29 09:28:47;;;;;;;7.28;1.88;;;;;;;14.89;72.36;98838.66;5031965;28;20063;-62
2024/03/29 09:31:14;;;;;;;5.60;2.05;;;;;;;14.80;72.74;98832.69;5051965;28;20056;-63
2024/03/29 09:33:40;;;;;;;8.77;1.60;;;;;;;14.85;72.82;98839.81;5047627;28;20049;-61
2024/03/29 09:36:10;;;;;;;9.10;1.35;;;;;;;15.04;71.12;98847.84;5051667;28;20063;-62
2024/03/29 09:38:36;;;;;;;6.00;1.13;;;;;;;15.28;68.93;98838.84;5058614;28;20048;-61
2024/03/29 09:41:15;;;;;;;7.78;1.20;;;;;;;15.08;69.14;98820.94;5053533;28;20052;-61
2024/03/29 09:43:44;;;;;;;13.32;2.40;;;;;;;15.30;71.15;98798.44;5046042;28;20064;-63
2024/03/29 09:46:12;;;;;;;12.32;1.90;;;;;;;15.20;69.26;98798.41;5053871;28;20048;-67
2024/03/29 09:48:45;;;;;;;7.40;1.85;;;;;;;15.18;69.38;98801.56;5048940;28;20080;-61
2024/03/29 09:51:15;;;;;;;7.13;1.02;;;;;;;15.14;69.31;98797.19;5052420;28;20052;-62
2024/03/29 09:53:43;;;;;;;6.30;1.30;;;;;;;15.25;69.41;98811.91;5031909;28;20090;-62
2024/03/29 09:56:09;;;;;;;7.28;1.20;;;;;;;15.40;68.39;98816.31;5062096;28;20571;-61
2024/03/29 09:58:37;;;;;;;5.00;1.00;;;;;;;15.44;67.04;98822.69;5064985;28;20057;-61
2024/03/29 10:01:04;;;;;;;5.13;1.15;;;;;;;15.28;67.11;98842.41;5053194;28;20051;-61
2024/03/29 10:03:40;;;;;;;5.32;1.55;;;;;;;15.41;67.23;98834.59;5058823;28;20056;-61
2024/03/29 10:06:09;;;;;;;7.75;3.03;;;;;;;15.74;65.63;98843.38;5040477;28;20057;-61
2024/03/29 10:08:35;;;;;;;6.70;1.50;;;;;;;15.46;65.80;98831.44;5030474;28;20049;-61
2024/03/29 10:11:02;;;;;;;6.20;1.02;;;;;;;15.54;65.25;98839.38;5044413;28;20436;-61
2024/03/29 10:13:28;;;;;;;5.32;1.25;;;;;;;15.53;64.52;98851.66;5059198;28;20044;-60
2024/03/29 10:15:56;;;;;;;6.00;1.20;;;;;;;15.33;64.53;98844.81;5058002;28;20726;-61
2024/03/29 10:18:23;;;;;;;7.32;1.10;;;;;;;15.25;64.88;98842.41;5056985;28;20052;-60
2024/03/29 10:20:59;;;;;;;4.97;1.25;;;;;;;15.41;64.83;98843.69;5065188;28;20050;-60
2024/03/29 10:23:26;;;;;;;4.03;1.45;;;;;;;15.27;65.36;98834.50;5052405;28;20068;-63
2024/03/29 10:25:52;;;;;;;5.43;1.13;;;;;;;15.31;65.41;98827.75;5045613;28;20080;-61
2024/03/29 10:28:19;;;;;;;5.80;1.10;;;;;;;15.43;64.92;98830.22;5035478;28;20049;-61
2024/03/29 10:30:45;;;;;;;7.35;1.30;;;;;;;15.89;63.23;98827.56;5055443;28;20051;-61
2024/03/29 10:33:13;;;;;;;5.70;0.90;;;;;;;16.15;61.07;98820.84;5051622;28;20095;-63
2024/03/29 10:35:43;;;;;;;5.82;1.10;;;;;;;15.85;61.58;98821.19;5068166;28;20480;-61
2024/03/29 10:38:10;;;;;;;5.75;1.60;;;;;;;15.82;61.52;98826.75;5057278;28;20045;-61
2024/03/29 10:40:41;;;;;;;7.30;1.55;;;;;;;15.91;62.10;98824.38;5053254;28;20069;-61
2024/03/29 10:43:16;;;;;;;5.97;1.40;;;;;;;15.79;61.88;98820.78;5051192;28;20048;-62
2024/03/29 10:45:43;;;;;;;8.85;1.70;;;;;;;15.78;61.07;98810.09;5062476;28;20053;-61
2024/03/29 10:48:10;;;;;;;5.38;1.42;;;;;;;15.90;60.92;98814.47;5060149;28;20065;-61
2024/03/29 10:50:37;;;;;;;4.70;1.30;;;;;;;15.95;60.01;98808.53;5063641;28;20045;-62
2024/03/29 10:53:05;;;;;;;4.38;1.10;;;;;;;15.99;60.05;98801.00;5048517;28;20072;-64
2024/03/29 10:55:35;;;;;;;4.50;1.08;;;;;;;16.26;59.58;98802.19;5055034;28;20055;-62
2024/03/29 10:58:04;;;;;;;10.15;2.17;;;;;;;16.25;59.06;98803.41;5054121;28;20060;-62
2024/03/29 11:00:42;;;;;;;6.43;1.20;;;;;;;16.11;59.88;98804.16;5053033;28;20744;-62
2024/03/29 11:03:18;;;;;;;7.32;1.02;;;;;;;16.27;58.68;98804.56;5034061;28;20048;-61
2024/03/29 11:05:51;;;;;;;11.45;7.45;;;;;;;16.45;58.17;98802.59;5059645;28;20049;-62
2024/03/29 11:08:27;;;;;;;4.43;1.30;;;;;;;16.43;57.78;98807.75;5051792;28;20119;-62
2024/03/29 11:10:57;;;;;;;4.70;1.10;;;;;;;16.44;57.17;98812.09;5050518;28;20048;-62
2024/03/29 11:13:48;;;;;;;5.78;1.10;;;;;;;16.72;56.68;98819.63;5040775;28;20122;-61
2024/03/29 11:16:18;;;;;;;3.80;0.98;;;;;;;16.42;54.87;98819.25;5046216;28;20056;-61
2024/03/29 11:18:47;;;;;;;11.70;1.08;;;;;;;16.47;55.48;98830.00;5060246;28;20072;-60
2024/03/29 11:21:18;;;;;;;3.55;0.90;;;;;;;16.61;56.05;98828.00;5047887;28;20055;-64
2024/03/29 11:23:52;;;;;;;8.88;1.35;;;;;;;16.86;55.20;98823.19;5057732;28;22011;-63
2024/03/29 11:26:19;;;;;;;8.18;1.05;;;;;;;17.08;54.89;98837.84;5056058;28;20045;-62
2024/03/29 11:28:49;;;;;;;5.70;1.38;;;;;;;17.04;54.03;98844.59;5047968;28;20048;-61
2024/03/29 11:31:16;;;;;;;5.28;1.05;;;;;;;16.98;54.34;98837.88;5047208;28;20060;-62
2024/03/29 11:33:46;;;;;;;5.15;1.50;;;;;;;16.70;54.63;98836.72;5046306;28;20060;-61
2024/03/29 11:36:24;;;;;;;10.95;5.60;;;;;;;17.16;53.56;98831.03;5048989;28;20048;-60
2024/03/29 11:38:51;;;;;;;10.75;2.47;;;;;;;16.88;53.48;98835.91;5047470;28;20061;-61
2024/03/29 11:41:26;;;;;;;7.53;3.00;;;;;;;17.06;53.67;98822.72;5037331;28;20057;-62
2024/03/29 11:43:56;;;;;;;7.32;2.40;;;;;;;17.07;52.66;98822.31;5048514;28;20063;-62